.
WxDataArchive / Data Records for 2006-03-13
2006-03-12 March 2006 2006-03-14

Data Records for Monday, 13 March 2006

Time	Temp	Chill	HIndex	Humid	Dewpt	 Wind 	HiWind	WindDir	Rain 	Barom 
-----	----	-----	------	-----	-----	------	------	-------	-----	----- 
00:00	59.3	59.3	59.3	90	56.4	0	3	0	0.00	29.704 
00:05	59.3	59.3	59.3	90	56.4	1	5	90	0.00	29.704 
00:10	59.2	59.2	59.2	90	56.3	0	2	112	0.00	29.704 
00:15	59.0	59.0	59.0	90	56.1	1	2	112	0.00	29.683 
00:20	58.9	58.9	58.9	90	56.0	1	3	112	0.00	29.683 
00:25	58.9	58.9	58.9	89	55.7	1	3	112	0.00	29.683 
00:30	58.9	58.9	58.9	89	55.7	2	5	112	0.00	29.675 
00:35	58.9	58.9	58.9	88	55.3	2	5	90	0.00	29.675 
00:40	59.0	59.0	59.0	88	55.4	2	5	90	0.00	29.675 
00:45	59.0	59.0	59.0	88	55.4	1	3	112	0.00	29.671 
00:50	59.0	59.0	59.0	86	54.8	2	7	112	0.00	29.671 
00:55	59.0	59.0	59.0	86	54.8	2	4	90	0.00	29.671 
01:00	59.0	59.0	59.0	85	54.5	2	5	112	0.00	29.661 
01:05	59.0	59.0	59.0	84	54.2	3	5	112	0.00	29.661 
01:10	59.2	59.2	59.2	84	54.4	3	7	90	0.00	29.661 
01:15	59.3	59.3	59.3	84	54.5	3	7	112	0.00	29.652 
01:20	59.3	59.3	59.3	84	54.5	3	5	112	0.00	29.652 
01:25	59.3	59.3	59.3	84	54.5	3	7	90	0.00	29.652 
01:30	59.5	59.5	59.5	84	54.7	3	7	90	0.00	29.639 
01:35	59.5	59.5	59.5	84	54.7	2	5	112	0.00	29.639 
01:40	59.6	59.6	59.6	84	54.8	2	5	112	0.00	29.639 
01:45	59.6	59.6	59.6	84	54.8	3	5	90	0.00	29.625 
01:50	59.6	59.6	59.6	84	54.8	3	10	90	0.00	29.625 
01:55	59.8	59.8	59.8	84	55.0	3	6	90	0.00	29.625 
02:00	59.9	59.9	59.9	84	55.0	4	10	112	0.00	29.613 
02:05	60.1	60.1	60.1	84	55.2	3	7	90	0.00	29.613 
02:10	60.2	60.2	60.2	84	55.3	3	9	90	0.00	29.613 
02:15	60.1	60.1	60.1	84	55.2	3	7	90	0.00	29.606 
02:20	60.1	60.1	60.1	84	55.2	3	7	112	0.00	29.606 
02:25	60.1	60.1	60.1	84	55.2	3	7	112	0.00	29.606 
02:30	60.1	60.1	60.1	84	55.2	3	9	112	0.00	29.580 
02:35	60.1	60.1	60.1	84	55.2	2	6	90	0.00	29.580 
02:40	60.1	60.1	60.1	85	55.6	2	5	90	0.00	29.580 
02:45	60.1	60.1	60.1	85	55.6	2	4	112	0.00	29.580 
02:50	60.5	60.5	60.5	84	55.6	3	6	112	0.00	29.580 
02:55	60.9	60.9	60.9	84	56.0	3	9	90	0.00	29.580 
03:00	61.5	61.5	61.5	82	55.9	4	13	90	0.00	29.566 
03:05	61.8	61.8	61.8	82	56.2	4	12	90	0.00	29.566 
03:10	62.0	62.0	62.0	82	56.4	3	6	90	0.00	29.566 
03:15	61.8	61.8	61.8	82	56.2	3	6	68	0.00	29.561 
03:20	61.6	61.6	61.6	82	56.0	3	9	270	0.00	29.561 
03:25	61.5	61.5	61.5	83	56.3	3	7	270	0.00	29.561 
03:30	61.3	61.3	61.3	83	56.1	2	7	270	0.00	29.564 
03:35	61.2	61.2	61.2	83	56.0	3	7	270	0.00	29.564 
03:40	61.0	61.0	61.0	84	56.1	2	6	270	0.00	29.564 
03:45	60.9	60.9	60.9	84	56.0	3	10	68	0.00	29.551 
03:50	60.9	60.9	60.9	84	56.0	3	6	68	0.00	29.551 
03:55	60.9	60.9	60.9	84	56.0	3	7	68	0.00	29.551 
04:00	60.7	60.7	60.7	85	56.2	3	7	68	0.00	29.533 
04:05	60.7	60.7	60.7	85	56.2	2	5	68	0.00	29.533 
04:10	60.9	60.9	60.9	85	56.4	3	9	90	0.00	29.533 
04:15	61.2	61.2	61.2	84	56.3	3	7	90	0.00	29.524 
04:20	61.3	61.3	61.3	84	56.4	3	7	45	0.00	29.524 
04:25	61.5	61.5	61.5	84	56.6	3	10	248	0.00	29.524 
04:30	61.8	61.8	61.8	84	56.9	3	6	248	0.00	29.521 
04:35	62.1	62.1	62.1	84	57.2	3	10	248	0.00	29.521 
04:40	62.7	62.7	62.7	83	57.5	4	11	248	0.00	29.521 
04:45	63.2	63.2	63.2	82	57.6	4	9	248	0.00	29.517 
04:50	63.7	63.7	63.7	81	57.8	4	15	248	0.00	29.517 
04:55	64.2	64.2	64.2	80	57.9	5	14	248	0.00	29.517 
05:00	64.5	64.5	64.5	80	58.2	4	14	248	0.00	29.515 
05:05	64.8	64.8	64.8	79	58.1	4	11	248	0.00	29.515 
05:10	64.8	64.8	64.8	79	58.1	4	15	248	0.00	29.515 
05:15	65.0	65.0	65.0	79	58.3	4	9	248	0.00	29.513 
05:20	65.0	65.0	65.0	79	58.3	5	12	248	0.00	29.513 
05:25	65.0	65.0	65.0	79	58.3	4	9	270	0.00	29.513 
05:30	64.8	64.8	64.8	79	58.1	3	6	248	0.00	29.513 
05:35	64.7	64.7	64.7	79	58.0	3	12	248	0.00	29.513 
05:40	64.5	64.5	64.5	80	58.2	3	8	270	0.00	29.513 
05:45	64.5	64.5	64.5	80	58.2	4	12	248	0.00	29.514 
05:50	64.5	64.5	64.5	80	58.2	3	7	248	0.00	29.514 
05:55	64.5	64.5	64.5	79	57.8	2	9	248	0.00	29.514 
06:00	64.5	64.5	64.5	80	58.2	1	3	248	0.00	29.530 
06:05	64.3	64.3	64.3	79	57.6	1	5	0	0.00	29.530 
06:10	63.9	63.9	63.9	78	56.9	1	4	0	0.00	29.530 
06:15	63.2	63.2	63.2	77	55.9	0	2	0	0.00	29.535 
06:20	62.9	62.9	62.9	78	55.9	1	3	68	0.00	29.535 
06:25	62.4	62.4	62.4	79	55.8	1	4	90	0.00	29.535 
06:30	62.0	62.0	62.0	80	55.8	2	5	112	0.00	29.522 
06:35	61.6	61.6	61.6	80	55.4	4	10	112	0.00	29.522 
06:40	61.5	61.5	61.5	80	55.3	2	5	248	0.00	29.522 
06:45	61.3	61.3	61.3	81	55.4	2	6	68	0.00	29.517 
06:50	61.3	61.3	61.3	81	55.4	2	6	90	0.00	29.517 
06:55	61.3	61.3	61.3	81	55.4	1	4	90	0.00	29.517 
07:00	61.3	61.3	61.3	82	55.8	2	4	90	0.00	29.529 
07:05	61.3	61.3	61.3	82	55.8	1	4	112	0.00	29.529 
07:10	61.5	61.5	61.5	82	55.9	1	4	90	0.00	29.529 
07:15	61.5	61.5	61.5	83	56.3	2	4	112	0.00	29.537 
07:20	61.6	61.6	61.6	84	56.7	0	2	225	0.01	29.537 
07:25	61.5	61.5	61.5	86	57.3	0	1	225	0.00	29.537 
07:30	61.5	61.5	61.5	87	57.6	0	2	225	0.00	29.523 
07:35	61.6	61.6	61.6	88	58.0	0	0	---	0.01	29.523 
07:40	61.6	61.6	61.6	88	58.0	1	3	112	0.00	29.523 
07:45	62.3	62.3	62.3	86	58.1	2	4	90	0.00	29.518 
07:50	62.9	62.9	62.9	86	58.6	1	3	270	0.00	29.518 
07:55	63.1	63.1	63.1	85	58.5	0	1	270	0.00	29.518 
08:00	62.7	62.7	62.7	84	57.8	0	1	270	0.00	29.525 
08:05	62.3	62.3	62.3	85	57.7	0	1	270	0.00	29.525 
08:10	61.8	61.8	61.8	86	57.6	0	1	270	0.00	29.525 
08:15	61.5	61.5	61.5	87	57.6	0	2	270	0.00	29.518 
08:20	61.3	61.3	61.3	87	57.4	0	2	225	0.00	29.518 
08:25	61.3	61.3	61.3	86	57.1	2	3	135	0.00	29.518 
08:30	61.3	61.3	61.3	87	57.4	1	3	112	0.00	29.509 
08:35	61.3	61.3	61.3	88	57.7	1	3	112	0.00	29.509 
08:40	61.2	61.2	61.2	88	57.6	2	4	90	0.00	29.509 
08:45	61.3	61.3	61.3	88	57.7	1	2	90	0.00	29.503 
08:50	61.5	61.5	61.5	88	57.9	1	5	112	0.00	29.503 
08:55	61.6	61.6	61.6	88	58.0	0	2	112	0.00	29.503 
09:00	62.1	62.1	62.1	87	58.2	1	3	90	0.00	29.499 
09:05	62.7	62.7	62.7	86	58.4	2	4	248	0.00	29.499 
09:10	63.1	63.1	63.1	85	58.5	2	4	248	0.02	29.499 
09:15	63.2	63.2	63.2	86	58.9	3	7	248	0.02	29.503 
09:20	63.1	63.1	63.1	87	59.2	2	5	248	0.00	29.503 
09:25	63.1	63.1	63.1	87	59.2	2	5	248	0.00	29.503 
09:30	63.1	63.1	63.1	86	58.8	2	5	90	0.00	29.473 
09:35	63.4	63.4	63.4	86	59.1	2	5	90	0.00	29.473 
09:40	63.5	63.5	63.5	86	59.2	2	6	225	0.00	29.473 
09:45	63.9	63.9	63.9	85	59.3	3	7	248	0.01	29.465 
09:50	64.2	64.2	64.2	84	59.3	3	5	248	0.00	29.465 
09:55	64.3	64.3	64.3	83	59.0	2	7	248	0.00	29.465 
10:00	64.7	64.7	64.7	83	59.4	3	11	270	0.00	29.463 
10:05	64.8	64.8	64.8	82	59.2	3	6	248	0.00	29.463 
10:10	65.0	65.0	65.0	81	59.0	3	8	248	0.00	29.463 
10:15	65.2	65.2	65.2	81	59.2	2	6	225	0.00	29.457 
10:20	65.2	65.2	65.2	81	59.2	3	7	270	0.00	29.457 
10:25	65.3	65.3	65.3	80	59.0	3	10	248	0.00	29.457 
10:30	65.5	65.5	65.5	80	59.2	3	9	248	0.00	29.453 
10:35	65.6	65.6	65.6	79	58.9	3	8	248	0.00	29.453 
10:40	65.8	65.8	65.8	78	58.7	4	12	270	0.00	29.453 
10:45	65.8	65.8	65.8	78	58.7	3	7	270	0.00	29.442 
10:50	65.8	65.8	65.8	78	58.7	4	10	270	0.00	29.442 
10:55	65.8	65.8	65.8	77	58.4	3	7	270	0.00	29.442 
11:00	66.0	66.0	66.0	77	58.6	5	14	90	0.00	29.432 
11:05	66.1	66.1	66.1	77	58.7	5	14	248	0.00	29.432 
11:10	66.3	66.3	66.3	76	58.5	5	21	248	0.00	29.432 
11:15	66.3	66.3	66.3	75	58.1	5	11	248	0.00	29.426 
11:20	66.4	66.4	66.4	75	58.2	7	16	248	0.00	29.426 
11:25	66.4	66.4	66.4	74	57.9	5	13	248	0.00	29.426 
11:30	66.6	66.6	66.6	74	58.0	6	14	248	0.00	29.423 
11:35	66.9	66.9	66.9	72	57.6	6	18	248	0.00	29.423 
11:40	67.1	67.1	67.1	71	57.4	6	17	248	0.00	29.423 
11:45	67.4	67.4	67.4	69	56.9	8	21	248	0.00	29.421 
11:50	67.4	67.4	67.4	68	56.5	6	15	248	0.00	29.421 
11:55	67.3	67.3	67.3	68	56.4	7	15	248	0.00	29.421 
12:00	67.1	67.1	67.1	68	56.2	6	16	248	0.00	29.407 
12:05	67.3	67.3	67.3	69	56.8	5	17	270	0.00	29.407 
12:10	67.3	67.3	67.3	68	56.4	6	17	248	0.00	29.407 
12:15	67.1	67.1	67.1	69	56.6	6	16	248	0.00	29.405 
12:20	67.1	67.1	67.1	69	56.6	5	14	248	0.00	29.405 
12:25	67.1	67.1	67.1	69	56.6	7	17	270	0.00	29.405 
12:30	67.1	67.1	67.1	70	57.0	6	15	248	0.00	29.395 
12:35	67.1	67.1	67.1	70	57.0	7	15	270	0.00	29.395 
12:40	67.1	67.1	67.1	70	57.0	8	15	248	0.00	29.395 
12:45	67.4	67.4	67.4	69	56.9	7	20	270	0.00	29.392 
12:50	67.6	67.6	67.6	69	57.1	8	22	270	0.00	29.392 
12:55	67.9	67.9	67.9	70	57.7	8	14	248	0.00	29.392 
13:00	68.4	68.4	68.4	68	57.4	8	20	270	0.00	29.388 
13:05	68.8	68.8	68.8	67	57.4	9	18	248	0.00	29.388 
13:10	68.8	68.8	68.8	63	55.7	11	22	270	0.00	29.388 
13:15	69.1	69.1	69.1	62	55.5	9	26	248	0.00	29.376 
13:20	68.8	68.8	68.8	62	55.2	7	15	248	0.00	29.376 
13:25	68.3	68.3	68.3	61	54.3	8	19	248	0.00	29.376 
13:30	67.9	67.9	67.9	62	54.4	9	18	270	0.00	29.373 
13:35	67.8	67.8	67.8	62	54.3	7	14	248	0.00	29.373 
13:40	67.3	67.3	67.3	66	55.5	8	22	270	0.00	29.373 
13:45	67.1	67.1	67.1	65	54.9	10	20	248	0.00	29.374 
13:50	67.1	67.1	67.1	65	54.9	9	19	248	0.00	29.374 
13:55	67.8	67.8	67.8	64	55.2	7	14	248	0.00	29.374 
14:00	68.1	68.1	68.1	63	55.0	9	20	248	0.00	29.369 
14:05	67.9	67.9	67.9	62	54.4	10	25	248	0.00	29.369 
14:10	67.4	67.4	67.4	61	53.5	11	21	248	0.00	29.369 
14:15	66.8	66.8	66.8	63	53.8	11	19	270	0.00	29.372 
14:20	66.4	66.4	66.4	62	53.0	8	19	270	0.00	29.372 
14:25	65.5	65.5	65.5	41	41.2	9	20	270	0.00	29.372 
14:30	65.3	65.3	65.3	40	40.4	8	21	270	0.00	29.391 
14:35	65.0	65.0	65.0	41	40.7	9	21	270	0.00	29.391 
14:40	64.2	64.2	64.2	41	40.0	10	23	270	0.00	29.391 
14:45	64.3	64.3	64.3	43	41.3	7	14	270	0.00	29.394 
14:50	64.5	64.5	64.5	43	41.5	10	23	270	0.00	29.394 
14:55	64.3	64.3	64.3	45	42.5	9	20	270	0.00	29.394 
15:00	64.3	64.3	64.3	44	41.9	9	19	270	0.00	29.406 
15:05	63.7	63.7	63.7	45	42.0	8	22	270	0.00	29.406 
15:10	63.5	63.5	63.5	45	41.8	11	22	270	0.00	29.406 
15:15	64.3	64.3	64.3	45	42.5	7	15	270	0.00	29.409 
15:20	64.3	64.3	64.3	42	40.7	9	18	270	0.00	29.409 
15:25	64.2	64.2	64.2	43	41.2	10	25	270	0.00	29.409 
15:30	64.0	64.0	64.0	44	41.6	8	17	270	0.00	29.411 
15:35	63.7	63.7	63.7	42	40.2	8	22	270	0.00	29.411 
15:40	63.4	63.4	63.4	37	36.7	10	21	270	0.00	29.411 
15:45	63.1	63.1	63.1	35	35.0	11	26	270	0.00	29.415 
15:50	62.9	62.9	62.9	35	34.8	12	24	270	0.00	29.415 
15:55	62.9	62.9	62.9	33	33.4	11	24	270	0.00	29.415 
16:00	62.9	62.9	62.9	35	34.8	9	19	270	0.00	29.413 
16:05	62.7	62.7	62.7	34	33.9	11	28	270	0.00	29.413 
16:10	62.6	62.6	62.6	35	34.6	10	26	248	0.00	29.413 
16:15	62.4	62.4	62.4	36	35.1	12	20	270	0.00	29.412 
16:20	62.1	62.1	62.1	39	36.8	12	28	270	0.00	29.412 
16:25	62.3	62.3	62.3	41	38.3	9	20	270	0.00	29.412 
16:30	61.8	61.8	61.8	44	39.7	9	22	270	0.00	29.414 
16:35	61.5	61.5	61.5	49	42.2	8	16	270	0.00	29.414 
16:40	61.3	61.3	61.3	47	40.9	8	27	270	0.00	29.414 
16:45	61.0	61.0	61.0	48	41.2	9	18	270	0.00	29.416 
16:50	60.7	60.7	60.7	48	40.9	10	26	270	0.00	29.416 
16:55	60.4	60.4	60.4	48	40.6	11	23	270	0.00	29.416 
17:00	59.9	59.9	59.9	48	40.2	10	24	270	0.00	29.427 
17:05	59.5	59.5	59.5	50	40.8	10	25	270	0.00	29.427 
17:10	59.2	59.2	59.2	52	41.6	9	24	270	0.00	29.427 
17:15	58.7	58.7	58.7	53	41.6	10	21	270	0.00	29.439 
17:20	58.3	58.3	58.3	54	41.7	9	21	270	0.00	29.439 
17:25	57.5	57.5	57.5	55	41.5	12	26	270	0.00	29.439 
17:30	56.9	56.9	56.9	57	41.8	9	22	270	0.00	29.448 
17:35	56.5	56.5	56.5	54	40.1	7	14	270	0.00	29.448 
17:40	55.9	55.9	55.9	58	41.3	9	24	270	0.00	29.448 
17:45	55.1	55.1	55.1	58	40.6	11	24	270	0.00	29.463 
17:50	54.5	54.5	54.5	59	40.5	9	22	270	0.00	29.463 
17:55	53.8	53.8	53.8	59	39.8	11	21	270	0.00	29.463 
18:00	53.2	53.2	53.2	61	40.1	9	18	270	0.00	29.481 
18:05	52.5	52.5	52.5	60	39.0	9	21	270	0.00	29.481 
18:10	51.6	51.6	51.6	62	39.0	9	25	270	0.00	29.481 
18:15	51.0	51.0	51.0	64	39.3	8	19	270	0.00	29.497 
18:20	50.4	50.4	50.4	62	37.9	8	22	270	0.00	29.497 
18:25	49.9	46.3	49.9	63	37.8	9	21	270	0.00	29.497 
18:30	49.4	45.6	49.4	60	36.1	9	35	270	0.00	29.505 
18:35	48.8	43.9	48.8	61	36.0	12	35	270	0.00	29.505 
18:40	48.6	45.5	48.6	62	36.2	7	18	270	0.00	29.505 
18:45	48.3	44.7	48.3	64	36.7	8	19	270	0.00	29.524 
18:50	47.7	42.8	47.7	66	36.9	11	20	270	0.00	29.524 
18:55	47.3	42.7	47.3	68	37.3	10	27	270	0.00	29.524 
19:00	46.7	42.7	46.7	69	37.1	8	19	270	0.00	29.537 
19:05	46.4	42.4	46.4	69	36.8	8	21	270	0.00	29.537 
19:10	45.7	41.5	45.7	68	35.8	8	20	270	0.00	29.537 
19:15	45.2	40.9	45.2	67	34.9	8	16	270	0.00	29.550 
19:20	45.1	40.8	45.1	66	34.4	8	15	270	0.00	29.550 
19:25	44.6	39.7	44.6	64	33.2	9	23	270	0.00	29.550 
19:30	44.5	40.6	44.5	63	32.7	7	13	270	0.00	29.561 
19:35	44.2	40.8	44.2	63	32.4	6	17	270	0.00	29.561 
19:40	44.1	40.1	44.1	63	32.3	7	20	270	0.00	29.561 
19:45	43.9	39.8	43.9	64	32.5	7	11	270	0.00	29.567 
19:50	43.8	40.3	43.8	63	32.0	6	15	270	0.00	29.567 
19:55	43.6	39.0	43.6	62	31.5	8	19	270	0.00	29.567 
20:00	43.3	38.6	43.3	62	31.2	8	28	270	0.00	29.574 
20:05	43.1	38.9	43.1	61	30.6	7	20	270	0.00	29.574 
20:10	42.9	39.2	42.9	62	30.8	6	12	270	0.00	29.574 
20:15	42.8	39.8	42.8	62	30.7	5	12	270	0.00	29.584 
20:20	42.6	38.9	42.6	61	30.1	6	12	270	0.00	29.584 
20:25	42.6	37.8	42.6	62	30.5	8	22	270	0.00	29.584 
20:30	42.6	37.8	42.6	61	30.1	8	21	270	0.00	29.585 
20:35	42.6	37.3	42.6	62	30.5	9	19	270	0.00	29.585 
20:40	42.5	38.2	42.5	62	30.4	7	13	270	0.00	29.585 
20:45	42.3	37.4	42.3	60	29.4	8	25	270	0.00	29.591 
20:50	42.1	37.1	42.1	58	28.4	8	21	270	0.00	29.591 
20:55	41.6	35.2	41.6	58	27.9	11	27	270	0.00	29.591 
21:00	41.3	36.2	41.3	59	28.1	8	20	270	0.00	29.597 
21:05	41.1	35.9	41.1	60	28.3	8	21	270	0.00	29.597 
21:10	40.9	36.2	40.9	60	28.1	7	18	270	0.00	29.597 
21:15	40.8	36.7	40.8	61	28.4	6	18	270	0.00	29.599 
21:20	40.6	37.2	40.6	61	28.2	5	13	270	0.00	29.599 
21:25	40.5	35.2	40.5	63	28.9	8	20	270	0.00	29.599 
21:30	40.2	35.4	40.2	63	28.6	7	19	270	0.00	29.605 
21:35	40.1	35.9	40.1	64	28.9	6	19	270	0.00	29.605 
21:40	39.9	36.4	39.9	65	29.1	5	13	270	0.00	29.605 
21:45	39.6	35.3	39.6	61	27.3	6	13	270	0.00	29.616 
21:50	39.5	35.9	39.5	61	27.2	5	11	270	0.00	29.616 
21:55	39.2	36.4	39.2	61	26.9	4	10	270	0.00	29.616 
22:00	39.1	36.3	39.1	62	27.2	4	14	270	0.00	29.622 
22:05	38.9	35.2	38.9	62	27.0	5	11	270	0.00	29.622 
22:10	38.9	35.2	38.9	63	27.4	5	11	270	0.00	29.622 
22:15	38.9	34.4	38.9	63	27.4	6	13	270	0.00	29.630 
22:20	38.8	35.1	38.8	63	27.3	5	10	270	0.00	29.630 
22:25	38.6	34.8	38.6	63	27.1	5	11	270	0.00	29.630 
22:30	38.6	34.8	38.6	63	27.1	5	13	270	0.00	29.633 
22:35	38.5	34.0	38.5	63	27.0	6	14	270	0.00	29.633 
22:40	38.3	33.7	38.3	64	27.2	6	16	270	0.00	29.633 
22:45	38.3	35.4	38.3	64	27.2	4	8	270	0.00	29.634 
22:50	38.3	34.5	38.3	63	26.8	5	17	270	0.00	29.634 
22:55	38.3	33.1	38.3	64	27.2	7	18	270	0.00	29.634 
23:00	38.3	33.1	38.3	64	27.2	7	16	270	0.00	29.634 
23:05	38.3	34.5	38.3	64	27.2	5	14	270	0.00	29.634 
23:10	38.3	33.7	38.3	65	27.6	6	13	270	0.00	29.634 
23:15	38.3	33.7	38.3	65	27.6	6	12	270	0.00	29.645 
23:20	38.2	33.6	38.2	64	27.1	6	13	270	0.00	29.645 
23:25	37.8	33.1	37.8	65	27.1	6	18	270	0.00	29.645 
23:30	37.6	32.9	37.6	64	26.5	6	12	270	0.00	29.652 
23:35	37.5	32.8	37.5	64	26.4	6	11	270	0.00	29.652 
23:40	37.2	32.4	37.2	64	26.2	6	14	270	0.00	29.652 
23:45	36.9	32.1	36.9	65	26.3	6	15	270	0.00	29.658 
23:50	36.6	31.7	36.6	66	26.3	6	14	270	0.00	29.658 
23:55	36.5	32.4	36.5	67	26.6	5	12	270	0.00	29.658 

CoCoRaHS
IN-AL-39
A2 Web Hosting
Creative Commons License
GoDaddy
Look for:

loaded 2017-10-17 22:22:06 • last modified 2010-11-18 10:43:29
Privacy PolicyDisclaimer
• wx.awcolley.com is powered by PmWiki v.2002016 •
• all content (unless otherwise noted) © 2017 A W Colley